Time;durP1;ratioP1;P1;durP2;ratioP2;P2;SDS_P1;SDS_P2;PMS_P1;PMS_P2;Temp;Humidity;BMP_temperature;BMP_pressure;BME280_temperature;BME280_humidity;BME280_pressure;Samples;Min_cycle;Max_cycle;Signal;HPM_P1;HPM_P2
2022/07/07 00:01:49;;;;;;;4.38;1.85;;;;;;;;;;5041500;28;20060;-64
2022/07/07 00:04:15;;;;;;;2.92;2.10;;;;;;;;;;5045325;28;20036;-64
2022/07/07 00:06:41;;;;;;;4.03;2.15;;;;;;;;;;5041708;28;20045;-64
2022/07/07 00:09:06;;;;;;;3.42;2.10;;;;;;;;;;5039028;28;20041;-64
2022/07/07 00:11:32;;;;;;;4.57;2.00;;;;;;;;;;5043316;28;20496;-64
2022/07/07 00:13:57;;;;;;;2.20;2.00;;;;;;;;;;5039331;28;20029;-64
2022/07/07 00:16:23;;;;;;;3.15;1.73;;;;;;;;;;5042168;28;20036;-64
2022/07/07 00:18:48;;;;;;;4.45;1.98;;;;;;;;;;5045031;28;20123;-64
2022/07/07 00:21:14;;;;;;;2.55;2.00;;;;;;;;;;5046489;28;20095;-64
2022/07/07 00:23:40;;;;;;;5.25;1.98;;;;;;;;;;5038281;28;20026;-64
2022/07/07 00:26:05;;;;;;;4.55;1.70;;;;;;;;;;5039018;28;20040;-64
2022/07/07 00:28:31;;;;;;;3.17;1.85;;;;;;;;;;5043188;28;20057;-64
2022/07/07 00:30:57;;;;;;;4.35;2.20;;;;;;;;;;5041011;28;20033;-64
2022/07/07 00:33:22;;;;;;;4.07;2.33;;;;;;;;;;5045791;28;20047;-64
2022/07/07 00:35:47;;;;;;;4.80;2.40;;;;;;;;;;5043518;28;20027;-64
2022/07/07 00:38:13;;;;;;;4.40;2.50;;;;;;;;;;5047081;28;20025;-64
2022/07/07 00:40:38;;;;;;;3.25;2.10;;;;;;;;;;5046268;28;20030;-64
2022/07/07 00:43:04;;;;;;;3.85;2.33;;;;;;;;;;5040267;28;20068;-64
2022/07/07 00:45:30;;;;;;;7.47;2.35;;;;;;;;;;5046423;28;20040;-64
2022/07/07 00:47:56;;;;;;;3.78;2.00;;;;;;;;;;5042026;28;20033;-64
2022/07/07 00:50:22;;;;;;;3.95;2.10;;;;;;;;;;5045981;28;20045;-64
2022/07/07 00:52:47;;;;;;;2.88;1.90;;;;;;;;;;5038624;28;20427;-64
2022/07/07 00:55:12;;;;;;;3.08;2.00;;;;;;;;;;5030372;28;20045;-64
2022/07/07 00:57:38;;;;;;;3.22;1.98;;;;;;;;;;5043672;28;20061;-64
2022/07/07 01:00:10;;;;;;;3.63;2.08;;;;;;;;;;5049355;28;20063;-64
2022/07/07 01:02:35;;;;;;;3.38;2.17;;;;;;;;;;5046635;28;20056;-64
2022/07/07 01:05:04;;;;;;;3.90;2.00;;;;;;;;;;5043859;28;20103;-64
2022/07/07 01:07:30;;;;;;;2.60;1.98;;;;;;;;;;5049940;28;20044;-64
2022/07/07 01:10:00;;;;;;;3.58;2.50;;;;;;;;;;5049741;28;20041;-64
2022/07/07 01:12:26;;;;;;;2.78;1.95;;;;;;;;;;5049542;28;20040;-64
2022/07/07 01:14:51;;;;;;;4.80;1.83;;;;;;;;;;5043241;28;20116;-65
2022/07/07 01:17:17;;;;;;;4.45;2.30;;;;;;;;;;5047253;28;20103;-64
2022/07/07 01:19:42;;;;;;;3.38;1.90;;;;;;;;;;5046961;28;20473;-65
2022/07/07 01:22:15;;;;;;;2.90;1.80;;;;;;;;;;5045287;28;20122;-64
2022/07/07 01:24:41;;;;;;;;;;;;;;;;;;5046865;28;20041;-64
2022/07/07 01:27:09;;;;;;;3.80;2.00;;;;;;;;;;5050293;28;19916;-65
2022/07/07 01:29:38;;;;;;;3.85;2.22;;;;;;;;;;5049147;28;20024;-65
2022/07/07 01:32:05;;;;;;;3.72;2.10;;;;;;;;;;5044072;28;20049;-64
2022/07/07 01:34:31;;;;;;;3.47;1.95;;;;;;;;;;5047324;28;20463;-65
2022/07/07 01:36:57;;;;;;;4.15;2.17;;;;;;;;;;5044474;28;20041;-64
2022/07/07 01:39:22;;;;;;;3.28;1.98;;;;;;;;;;5050691;28;20033;-64
2022/07/07 01:41:47;;;;;;;3.67;2.10;;;;;;;;;;5042897;28;20488;-64
2022/07/07 01:44:13;;;;;;;4.10;2.15;;;;;;;;;;5040093;28;20021;-64
2022/07/07 01:46:38;;;;;;;3.58;2.15;;;;;;;;;;5042552;28;20136;-64
2022/07/07 01:49:03;;;;;;;4.20;2.45;;;;;;;;;;5040958;28;20044;-64
2022/07/07 01:51:29;;;;;;;4.07;2.20;;;;;;;;;;5047243;28;20069;-64
2022/07/07 01:53:54;;;;;;;4.05;2.10;;;;;;;;;;5049549;28;20031;-64
2022/07/07 01:56:19;;;;;;;3.95;2.28;;;;;;;;;;5049850;28;20052;-65
2022/07/07 01:58:45;;;;;;;4.78;2.40;;;;;;;;;;5041821;28;20126;-64
2022/07/07 02:01:10;;;;;;;5.30;2.50;;;;;;;;;;5044926;28;20080;-64
2022/07/07 02:03:36;;;;;;;5.07;2.83;;;;;;;;;;5046078;28;20047;-64
2022/07/07 02:06:01;;;;;;;3.90;2.50;;;;;;;;;;5045896;28;20029;-64
2022/07/07 02:08:26;;;;;;;3.55;2.40;;;;;;;;;;5039858;28;20029;-64
2022/07/07 02:13:35;;;;;;;3.72;2.50;;;;;;;;;;5027647;28;20099;-65
2022/07/07 02:16:01;;;;;;;3.88;2.17;;;;;;;;;;5042755;28;20045;-64
2022/07/07 02:18:27;;;;;;;5.45;2.30;;;;;;;;;;5035765;28;20051;-64
2022/07/07 02:20:52;;;;;;;3.75;2.10;;;;;;;;;;5047177;28;20033;-64
2022/07/07 02:23:17;;;;;;;5.50;2.67;;;;;;;;;;5044359;28;20032;-64
2022/07/07 02:25:42;;;;;;;6.72;2.55;;;;;;;;;;5047872;28;20041;-64
2022/07/07 02:28:08;;;;;;;5.65;2.25;;;;;;;;;;5034166;28;20040;-64
2022/07/07 02:30:34;;;;;;;4.00;2.33;;;;;;;;;;5049014;28;20056;-64
2022/07/07 02:33:00;;;;;;;4.40;2.50;;;;;;;;;;5049070;28;20104;-64
2022/07/07 02:35:25;;;;;;;5.07;2.78;;;;;;;;;;5046469;28;20116;-64
2022/07/07 02:37:50;;;;;;;4.45;2.40;;;;;;;;;;5048447;28;20041;-64
2022/07/07 02:40:16;;;;;;;3.25;2.30;;;;;;;;;;5045371;28;20043;-64
2022/07/07 02:42:41;;;;;;;3.72;2.40;;;;;;;;;;5047019;28;20091;-64
2022/07/07 02:45:07;;;;;;;4.63;3.25;;;;;;;;;;5045948;28;20052;-64
2022/07/07 02:47:32;;;;;;;4.63;2.88;;;;;;;;;;5048707;28;20032;-64
2022/07/07 02:49:57;;;;;;;5.45;2.67;;;;;;;;;;5042690;28;20047;-64
2022/07/07 02:52:23;;;;;;;7.07;2.80;;;;;;;;;;5040509;28;20423;-64
2022/07/07 02:54:48;;;;;;;6.15;2.95;;;;;;;;;;5040000;28;20044;-64
2022/07/07 02:57:13;;;;;;;4.53;2.45;;;;;;;;;;5048170;28;20167;-64
2022/07/07 02:59:39;;;;;;;4.65;2.75;;;;;;;;;;5034069;28;20033;-64
2022/07/07 03:02:04;;;;;;;6.88;2.50;;;;;;;;;;5029316;28;20091;-64
2022/07/07 03:04:29;;;;;;;4.72;2.50;;;;;;;;;;5041050;28;20041;-64
2022/07/07 03:06:55;;;;;;;5.13;2.88;;;;;;;;;;5045009;28;20032;-65
2022/07/07 03:09:20;;;;;;;6.03;3.20;;;;;;;;;;5042814;28;20174;-64
2022/07/07 03:11:45;;;;;;;4.85;2.60;;;;;;;;;;5048759;28;20039;-64
2022/07/07 03:14:11;;;;;;;6.85;3.00;;;;;;;;;;5035593;28;20103;-64
2022/07/07 03:16:36;;;;;;;6.28;2.95;;;;;;;;;;5032481;28;20141;-64
2022/07/07 03:19:01;;;;;;;6.40;2.85;;;;;;;;;;5043813;28;20047;-64
2022/07/07 03:21:26;;;;;;;4.47;2.70;;;;;;;;;;5046383;28;20112;-64
2022/07/07 03:23:52;;;;;;;4.90;2.78;;;;;;;;;;5039687;28;20056;-64
2022/07/07 03:26:17;;;;;;;5.68;2.80;;;;;;;;;;5043033;28;20111;-64
2022/07/07 03:28:42;;;;;;;4.97;3.45;;;;;;;;;;5046365;28;20039;-65
2022/07/07 03:31:08;;;;;;;5.93;3.05;;;;;;;;;;5045525;28;20128;-64
2022/07/07 03:33:33;;;;;;;4.93;2.92;;;;;;;;;;5038361;28;20045;-64
2022/07/07 03:35:58;;;;;;;5.28;2.70;;;;;;;;;;5035157;28;20503;-64
2022/07/07 03:38:24;;;;;;;6.30;2.85;;;;;;;;;;5038864;28;20110;-64
2022/07/07 03:40:49;;;;;;;8.13;3.30;;;;;;;;;;5045468;28;20419;-64
2022/07/07 03:43:14;;;;;;;5.70;3.03;;;;;;;;;;5042066;28;20033;-64
2022/07/07 03:45:40;;;;;;;7.50;2.83;;;;;;;;;;5044239;28;20124;-64
2022/07/07 03:48:06;;;;;;;7.90;2.70;;;;;;;;;;5032604;28;20412;-65
2022/07/07 03:50:31;;;;;;;5.75;2.95;;;;;;;;;;5028371;28;20053;-64
2022/07/07 03:52:57;;;;;;;7.07;3.33;;;;;;;;;;5032421;28;20103;-64
2022/07/07 03:55:23;;;;;;;6.70;2.92;;;;;;;;;;5044121;28;20580;-64
2022/07/07 03:57:49;;;;;;;7.82;3.30;;;;;;;;;;5043557;28;20076;-64
2022/07/07 04:00:15;;;;;;;6.55;3.40;;;;;;;;;;5040258;28;20041;-64
2022/07/07 04:02:40;;;;;;;5.82;3.30;;;;;;;;;;5047440;28;20087;-64
2022/07/07 04:05:06;;;;;;;6.55;2.90;;;;;;;;;;5047516;28;20041;-64
2022/07/07 04:07:33;;;;;;;8.05;3.45;;;;;;;;;;5047597;28;20040;-64
2022/07/07 04:10:01;;;;;;;7.07;3.08;;;;;;;;;;5039485;28;20535;-64
2022/07/07 04:12:26;;;;;;;6.82;3.10;;;;;;;;;;5044005;28;20045;-64
2022/07/07 04:14:51;;;;;;;5.70;3.03;;;;;;;;;;5042088;28;20047;-64
2022/07/07 04:17:16;;;;;;;5.25;3.05;;;;;;;;;;5038315;28;20039;-64
2022/07/07 04:19:42;;;;;;;8.50;3.40;;;;;;;;;;5027388;28;20042;-64
2022/07/07 04:22:07;;;;;;;6.20;3.03;;;;;;;;;;5047756;28;20041;-64
2022/07/07 04:24:33;;;;;;;6.47;3.33;;;;;;;;;;5043606;28;20037;-64
2022/07/07 04:26:58;;;;;;;9.02;3.20;;;;;;;;;;5045867;28;20040;-64
2022/07/07 04:29:23;;;;;;;6.75;3.53;;;;;;;;;;5037313;28;20021;-64
2022/07/07 04:31:49;;;;;;;5.30;3.10;;;;;;;;;;5041444;28;20041;-64
2022/07/07 04:34:14;;;;;;;12.07;3.75;;;;;;;;;;5040353;28;20041;-64
2022/07/07 04:36:40;;;;;;;6.85;3.05;;;;;;;;;;5041348;28;20033;-64
2022/07/07 04:39:05;;;;;;;7.28;3.45;;;;;;;;;;5042883;28;20075;-64
2022/07/07 04:41:31;;;;;;;4.75;2.67;;;;;;;;;;5040917;28;20499;-64
2022/07/07 04:43:56;;;;;;;8.73;2.97;;;;;;;;;;5045100;28;20492;-65
2022/07/07 04:46:21;;;;;;;6.38;2.78;;;;;;;;;;5038997;28;20043;-64
2022/07/07 04:48:47;;;;;;;5.53;2.90;;;;;;;;;;5028538;28;20041;-64
2022/07/07 04:51:12;;;;;;;8.13;2.90;;;;;;;;;;5027266;28;20037;-64
2022/07/07 04:53:37;;;;;;;7.28;3.00;;;;;;;;;;5040068;28;20029;-65
2022/07/07 04:56:04;;;;;;;6.75;2.67;;;;;;;;;;5040828;28;20029;-65
2022/07/07 04:58:29;;;;;;;6.57;2.80;;;;;;;;;;5046906;28;20036;-64
2022/07/07 05:00:55;;;;;;;5.55;2.75;;;;;;;;;;5044727;28;20037;-64
2022/07/07 05:03:20;;;;;;;6.45;2.80;;;;;;;;;;5044077;28;20039;-64
2022/07/07 05:05:45;;;;;;;10.20;2.72;;;;;;;;;;5045078;28;20016;-64
2022/07/07 05:08:11;;;;;;;4.47;2.53;;;;;;;;;;5038209;28;20041;-64
2022/07/07 05:10:36;;;;;;;4.32;2.40;;;;;;;;;;5040105;28;20068;-64
2022/07/07 05:13:01;;;;;;;5.93;2.72;;;;;;;;;;5026350;28;20061;-64
2022/07/07 05:15:27;;;;;;;6.55;2.70;;;;;;;;;;5029998;28;20037;-64
2022/07/07 05:17:52;;;;;;;4.85;2.80;;;;;;;;;;5041503;28;20025;-64
2022/07/07 05:20:17;;;;;;;6.07;2.90;;;;;;;;;;5039097;28;20100;-64
2022/07/07 05:22:43;;;;;;;9.68;2.80;;;;;;;;;;5041543;28;20119;-64
2022/07/07 05:25:08;;;;;;;4.50;2.20;;;;;;;;;;5039348;28;20420;-64
2022/07/07 05:27:34;;;;;;;4.53;2.17;;;;;;;;;;5040359;28;20518;-64
2022/07/07 05:29:59;;;;;;;3.40;1.85;;;;;;;;;;5040455;28;20052;-64
2022/07/07 05:32:24;;;;;;;5.93;2.30;;;;;;;;;;5045750;28;20036;-64
2022/07/07 05:34:50;;;;;;;5.97;2.83;;;;;;;;;;5047401;28;20411;-64
2022/07/07 05:37:15;;;;;;;4.78;1.98;;;;;;;;;;5050610;28;20029;-64
2022/07/07 05:39:40;;;;;;;3.85;2.00;;;;;;;;;;5045874;28;20051;-64
2022/07/07 05:42:06;;;;;;;3.58;1.85;;;;;;;;;;5050757;28;20036;-64
2022/07/07 05:44:31;;;;;;;4.38;1.80;;;;;;;;;;5037875;28;20396;-64
2022/07/07 05:46:56;;;;;;;2.55;1.70;;;;;;;;;;5044171;28;20104;-64
2022/07/07 05:49:22;;;;;;;3.00;1.95;;;;;;;;;;5047924;28;20116;-64
2022/07/07 05:51:47;;;;;;;3.78;1.75;;;;;;;;;;5049765;28;20063;-64
2022/07/07 05:54:12;;;;;;;6.68;2.22;;;;;;;;;;5035268;28;20140;-64
2022/07/07 05:56:38;;;;;;;2.67;1.67;;;;;;;;;;5031118;28;20028;-64
2022/07/07 05:59:03;;;;;;;2.97;1.23;;;;;;;;;;5036160;28;20120;-64
2022/07/07 06:01:29;;;;;;;4.82;1.77;;;;;;;;;;5043953;28;20041;-64
2022/07/07 06:03:54;;;;;;;2.20;1.60;;;;;;;;;;5045815;28;20049;-64
2022/07/07 06:06:20;;;;;;;3.90;1.80;;;;;;;;;;5042727;28;20045;-64
2022/07/07 06:08:45;;;;;;;2.25;1.50;;;;;;;;;;5031022;28;20472;-64
2022/07/07 06:11:10;;;;;;;4.43;1.73;;;;;;;;;;5030978;28;20041;-64
2022/07/07 06:13:36;;;;;;;2.22;1.60;;;;;;;;;;5040333;28;20049;-65
2022/07/07 06:16:01;;;;;;;2.28;1.70;;;;;;;;;;5036884;28;20041;-64
2022/07/07 06:18:26;;;;;;;2.10;1.30;;;;;;;;;;5036400;28;20087;-64
2022/07/07 06:20:52;;;;;;;4.45;1.60;;;;;;;;;;5035831;28;20095;-64
2022/07/07 06:23:17;;;;;;;3.10;1.50;;;;;;;;;;5030850;28;20559;-65
2022/07/07 06:25:45;;;;;;;2.92;1.23;;;;;;;;;;5040825;28;20045;-66
2022/07/07 06:28:11;;;;;;;2.70;1.52;;;;;;;;;;5029002;28;20040;-65
2022/07/07 06:30:36;;;;;;;3.00;1.42;;;;;;;;;;5038036;28;20041;-65
2022/07/07 06:33:01;;;;;;;3.42;1.70;;;;;;;;;;5028676;28;20033;-64
2022/07/07 06:35:27;;;;;;;2.88;1.85;;;;;;;;;;5040951;28;20737;-66
2022/07/07 06:37:53;;;;;;;2.28;1.42;;;;;;;;;;5040786;28;20561;-66
2022/07/07 06:40:19;;;;;;;3.67;2.28;;;;;;;;;;5041054;28;20041;-66
2022/07/07 06:42:44;;;;;;;4.93;1.77;;;;;;;;;;5027357;28;20026;-66
2022/07/07 06:45:10;;;;;;;1.08;0.90;;;;;;;;;;5042997;28;20061;-66
2022/07/07 06:47:35;;;;;;;0.57;0.50;;;;;;;;;;5028160;28;20021;-67
2022/07/07 06:50:00;;;;;;;1.10;0.55;;;;;;;;;;5027616;28;20037;-66
2022/07/07 06:52:26;;;;;;;2.35;0.80;;;;;;;;;;5035627;28;20032;-66
2022/07/07 06:54:51;;;;;;;0.77;0.77;;;;;;;;;;5043070;28;20048;-65
2022/07/07 06:57:17;;;;;;;0.73;0.70;;;;;;;;;;5045526;28;20041;-65
2022/07/07 06:59:43;;;;;;;2.30;0.63;;;;;;;;;;5046853;28;20048;-67
2022/07/07 07:02:08;;;;;;;0.63;0.50;;;;;;;;;;5039725;28;20040;-65
2022/07/07 07:04:33;;;;;;;0.68;0.50;;;;;;;;;;5039459;28;20041;-66
2022/07/07 07:06:59;;;;;;;0.45;0.45;;;;;;;;;;5037227;28;20132;-66
2022/07/07 07:09:24;;;;;;;2.63;1.05;;;;;;;;;;5042076;28;20041;-66
2022/07/07 07:11:50;;;;;;;2.20;0.57;;;;;;;;;;5038728;28;20121;-66
2022/07/07 07:14:16;;;;;;;0.50;0.50;;;;;;;;;;5040118;28;20040;-66
2022/07/07 07:16:41;;;;;;;1.05;0.50;;;;;;;;;;5032264;28;20538;-66
2022/07/07 07:19:06;;;;;;;1.15;0.65;;;;;;;;;;5040377;28;20037;-66
2022/07/07 07:21:32;;;;;;;0.63;0.60;;;;;;;;;;5033245;28;20047;-65
2022/07/07 07:23:57;;;;;;;0.50;0.50;;;;;;;;;;5037900;28;20032;-65
2022/07/07 07:26:23;;;;;;;0.30;0.30;;;;;;;;;;5031828;28;20403;-66
2022/07/07 07:28:48;;;;;;;0.82;0.60;;;;;;;;;;5038998;28;20139;-64
2022/07/07 07:31:14;;;;;;;2.00;0.40;;;;;;;;;;5040123;28;20044;-65
2022/07/07 07:33:39;;;;;;;0.75;0.68;;;;;;;;;;5036672;28;20048;-65
2022/07/07 07:36:07;;;;;;;2.03;0.60;;;;;;;;;;5034667;28;20025;-66
2022/07/07 07:38:35;;;;;;;3.22;0.80;;;;;;;;;;5036341;28;20466;-65
2022/07/07 07:41:02;;;;;;;2.10;0.50;;;;;;;;;;5038790;28;20036;-65
2022/07/07 07:43:27;;;;;;;0.40;0.40;;;;;;;;;;5033760;28;20040;-65
2022/07/07 07:45:53;;;;;;;1.15;0.60;;;;;;;;;;5034265;28;20037;-68
2022/07/07 07:48:18;;;;;;;0.50;0.50;;;;;;;;;;5037618;28;20056;-68
2022/07/07 07:50:44;;;;;;;1.48;0.57;;;;;;;;;;5037364;28;20054;-67
2022/07/07 07:53:09;;;;;;;2.13;0.60;;;;;;;;;;5035844;28;20840;-66
2022/07/07 07:55:35;;;;;;;1.15;0.60;;;;;;;;;;5036526;28;20042;-67
2022/07/07 07:58:01;;;;;;;2.72;0.80;;;;;;;;;;5038403;28;20048;-67
2022/07/07 08:00:27;;;;;;;3.30;0.70;;;;;;;;;;5032534;28;20045;-66
2022/07/07 08:02:52;;;;;;;2.70;0.80;;;;;;;;;;5035555;28;20056;-65
2022/07/07 08:05:19;;;;;;;3.38;0.82;;;;;;;;;;5037501;28;20070;-66
2022/07/07 08:07:45;;;;;;;1.55;0.73;;;;;;;;;;5029990;28;20516;-65
2022/07/07 08:10:13;;;;;;;9.63;0.85;;;;;;;;;;5034504;28;20044;-65
2022/07/07 08:12:39;;;;;;;1.83;0.98;;;;;;;;;;5033434;28;20471;-65
2022/07/07 08:15:05;;;;;;;1.20;0.68;;;;;;;;;;5034340;28;21140;-66
2022/07/07 08:17:30;;;;;;;2.05;0.73;;;;;;;;;;5038189;28;20040;-66
2022/07/07 08:19:56;;;;;;;3.08;0.70;;;;;;;;;;5034787;28;20055;-66
2022/07/07 08:22:21;;;;;;;1.67;0.60;;;;;;;;;;5040809;28;20523;-66
2022/07/07 08:24:46;;;;;;;3.45;1.08;;;;;;;;;;5044770;28;20071;-66
2022/07/07 08:27:12;;;;;;;2.95;0.80;;;;;;;;;;5040557;28;20128;-66
2022/07/07 08:29:38;;;;;;;2.80;0.93;;;;;;;;;;5038374;28;20036;-66
2022/07/07 08:32:10;;;;;;;1.20;0.70;;;;;;;;;;5024005;28;20131;-65
2022/07/07 08:34:36;;;;;;;2.05;0.80;;;;;;;;;;5019686;28;20049;-66
2022/07/07 08:37:02;;;;;;;0.98;0.68;;;;;;;;;;5011605;28;20051;-66
2022/07/07 08:39:27;;;;;;;2.65;0.90;;;;;;;;;;5020982;28;20045;-66
2022/07/07 08:41:53;;;;;;;4.63;0.88;;;;;;;;;;5005527;28;20040;-66
2022/07/07 08:44:18;;;;;;;4.05;0.95;;;;;;;;;;5026511;28;20021;-67
2022/07/07 08:46:44;;;;;;;2.45;0.73;;;;;;;;;;5026060;28;20080;-69
2022/07/07 08:49:10;;;;;;;3.00;1.20;;;;;;;;;;5032353;28;20484;-70
2022/07/07 08:51:42;;;;;;;1.25;0.90;;;;;;;;;;5042487;28;20427;-69
2022/07/07 08:54:13;;;;;;;3.33;0.90;;;;;;;;;;5037572;28;20033;-70
2022/07/07 08:56:39;;;;;;;1.05;0.90;;;;;;;;;;5038665;28;20040;-69
2022/07/07 08:59:10;;;;;;;1.38;0.65;;;;;;;;;;5026856;28;20107;-69
2022/07/07 09:01:36;;;;;;;1.00;0.90;;;;;;;;;;5037990;28;20037;-68
2022/07/07 09:04:03;;;;;;;2.78;0.75;;;;;;;;;;5032348;28;20044;-67
2022/07/07 09:06:29;;;;;;;4.47;0.80;;;;;;;;;;5038246;28;20048;-67
2022/07/07 09:08:55;;;;;;;2.17;0.80;;;;;;;;;;5041421;28;20071;-67
2022/07/07 09:11:28;;;;;;;2.28;1.05;;;;;;;;;;5040770;28;20025;-67
2022/07/07 09:14:14;;;;;;;1.50;0.77;;;;;;;;;;5038604;28;20041;-69
2022/07/07 09:16:40;;;;;;;2.83;0.70;;;;;;;;;;5026405;28;20055;-68
2022/07/07 09:19:25;;;;;;;1.85;1.02;;;;;;;;;;5036690;28;20036;-69
2022/07/07 09:21:51;;;;;;;2.75;0.75;;;;;;;;;;5039465;28;20068;-69
2022/07/07 09:24:16;;;;;;;3.10;0.90;;;;;;;;;;5037008;28;20051;-67
2022/07/07 09:26:46;;;;;;;1.75;0.98;;;;;;;;;;5040244;28;20078;-66
2022/07/07 09:29:18;;;;;;;1.33;0.80;;;;;;;;;;5040044;28;20036;-67
2022/07/07 09:31:57;;;;;;;2.00;0.70;;;;;;;;;;5037779;28;20144;-67
2022/07/07 09:34:34;;;;;;;1.88;0.80;;;;;;;;;;5043007;28;20069;-71
2022/07/07 09:39:46;;;;;;;3.88;1.02;;;;;;;;;;5046948;28;20055;-69
2022/07/07 09:42:24;;;;;;;5.18;1.13;;;;;;;;;;5039642;28;20367;-69
2022/07/07 09:45:02;;;;;;;1.02;0.75;;;;;;;;;;5023210;28;20900;-70
2022/07/07 09:47:28;;;;;;;4.72;0.88;;;;;;;;;;5025203;28;20021;-70
2022/07/07 09:49:58;;;;;;;1.65;0.88;;;;;;;;;;5022932;28;20046;-70
2022/07/07 09:52:24;;;;;;;3.40;0.90;;;;;;;;;;5023817;28;20037;-69
2022/07/07 09:54:49;;;;;;;2.13;0.75;;;;;;;;;;5026154;28;20066;-69
2022/07/07 09:57:18;;;;;;;2.15;0.60;;;;;;;;;;5029940;28;20044;-70
2022/07/07 09:59:44;;;;;;;3.60;0.73;;;;;;;;;;5020496;28;20040;-70
2022/07/07 10:02:37;;;;;;;1.27;0.70;;;;;;;;;;5031539;28;20622;-71
2022/07/07 10:05:03;;;;;;;1.33;0.90;;;;;;;;;;5040060;28;20052;-70
2022/07/07 10:07:31;;;;;;;6.05;0.70;;;;;;;;;;5028737;28;20118;-69
2022/07/07 10:10:08;;;;;;;0.40;0.40;;;;;;;;;;5021895;28;20041;-68
2022/07/07 10:12:41;;;;;;;0.40;0.40;;;;;;;;;;5023288;28;20865;-67
2022/07/07 10:15:12;;;;;;;0.57;0.40;;;;;;;;;;5020633;28;20100;-69
2022/07/07 10:17:42;;;;;;;0.40;0.40;;;;;;;;;;5023702;28;20049;-70
2022/07/07 10:20:08;;;;;;;1.02;0.60;;;;;;;;;;5037450;28;20040;-70
2022/07/07 10:22:35;;;;;;;1.60;0.60;;;;;;;;;;5038545;28;20052;-70
2022/07/07 10:25:03;;;;;;;2.90;0.60;;;;;;;;;;5038299;28;20045;-70
2022/07/07 10:27:29;;;;;;;1.88;0.40;;;;;;;;;;5026771;28;20061;-70
2022/07/07 10:29:56;;;;;;;1.83;0.60;;;;;;;;;;5046468;28;20503;-70
2022/07/07 10:32:59;;;;;;;1.08;0.50;;;;;;;;;;5039009;28;20029;-69
2022/07/07 10:35:25;;;;;;;1.90;0.55;;;;;;;;;;5038599;28;20044;-72
2022/07/07 10:37:54;;;;;;;1.17;0.47;;;;;;;;;;5036982;28;20037;-70
2022/07/07 10:40:23;;;;;;;1.00;0.60;;;;;;;;;;5024588;28;20041;-70
2022/07/07 10:42:52;;;;;;;0.63;0.50;;;;;;;;;;5026385;28;20044;-71
2022/07/07 10:45:19;;;;;;;1.08;0.60;;;;;;;;;;5032303;28;20044;-70
2022/07/07 10:47:44;;;;;;;1.13;0.52;;;;;;;;;;5030984;28;20044;-70
2022/07/07 10:50:33;;;;;;;2.47;0.60;;;;;;;;;;5028346;28;20057;-71
2022/07/07 10:52:59;;;;;;;1.85;0.60;;;;;;;;;;5037579;28;20049;-71
2022/07/07 10:55:53;;;;;;;2.05;0.60;;;;;;;;;;5039694;28;20600;-68
2022/07/07 10:58:43;;;;;;;1.88;0.70;;;;;;;;;;5033505;28;20036;-69
2022/07/07 11:01:09;;;;;;;2.70;0.90;;;;;;;;;;5035370;28;20094;-70
2022/07/07 11:03:38;;;;;;;1.30;0.77;;;;;;;;;;5034253;28;20040;-70
2022/07/07 11:06:05;;;;;;;1.83;0.70;;;;;;;;;;5053833;28;20514;-70
2022/07/07 11:08:38;;;;;;;4.25;0.93;;;;;;;;;;5037292;28;20120;-69
2022/07/07 11:11:05;;;;;;;1.10;0.90;;;;;;;;;;5033723;28;20571;-70
2022/07/07 11:13:39;;;;;;;0.85;0.70;;;;;;;;;;5039180;28;20436;-70
2022/07/07 11:16:22;;;;;;;0.93;0.60;;;;;;;;;;5033417;28;20049;-70
2022/07/07 11:19:06;;;;;;;2.33;0.73;;;;;;;;;;5036317;28;20110;-69
2022/07/07 11:21:44;;;;;;;2.67;0.80;;;;;;;;;;5038195;28;20059;-69
2022/07/07 11:24:18;;;;;;;1.17;0.60;;;;;;;;;;5033418;28;20408;-70
2022/07/07 11:26:53;;;;;;;2.50;0.60;;;;;;;;;;5037058;28;20029;-69
2022/07/07 11:29:18;;;;;;;3.50;1.05;;;;;;;;;;5031141;28;20060;-69
2022/07/07 11:31:44;;;;;;;2.33;0.50;;;;;;;;;;5034794;28;20126;-69
2022/07/07 11:34:11;;;;;;;4.82;0.63;;;;;;;;;;5033788;28;20098;-70
2022/07/07 11:36:36;;;;;;;0.50;0.50;;;;;;;;;;5030042;28;20033;-69
2022/07/07 11:39:05;;;;;;;1.40;0.40;;;;;;;;;;5026284;28;20040;-69
2022/07/07 11:41:41;;;;;;;1.88;0.38;;;;;;;;;;5035244;28;20037;-66
2022/07/07 11:44:06;;;;;;;0.57;0.50;;;;;;;;;;5031829;28;20574;-69
2022/07/07 11:46:32;;;;;;;0.95;0.60;;;;;;;;;;5033684;28;20045;-70
2022/07/07 11:48:57;;;;;;;4.60;0.77;;;;;;;;;;5036887;28;20852;-68
2022/07/07 11:51:29;;;;;;;1.65;0.95;;;;;;;;;;5033507;28;20110;-68
2022/07/07 11:53:57;;;;;;;1.08;0.57;;;;;;;;;;5035459;28;20089;-66
2022/07/07 11:56:31;;;;;;;0.73;0.60;;;;;;;;;;5035559;28;20108;-67
2022/07/07 11:58:58;;;;;;;2.72;0.70;;;;;;;;;;5031272;28;20065;-67
2022/07/07 12:01:23;;;;;;;1.17;0.60;;;;;;;;;;5031025;28;20032;-69
2022/07/07 12:03:49;;;;;;;3.05;0.80;;;;;;;;;;5035895;28;20435;-67
2022/07/07 12:06:14;;;;;;;4.03;0.80;;;;;;;;;;5037856;28;20052;-67
2022/07/07 12:08:40;;;;;;;4.05;0.95;;;;;;;;;;5036513;28;20028;-67
2022/07/07 12:11:05;;;;;;;1.27;0.70;;;;;;;;;;5039913;28;20599;-67
2022/07/07 12:13:31;;;;;;;2.33;0.75;;;;;;;;;;5032642;28;20775;-67
2022/07/07 12:15:58;;;;;;;1.50;0.60;;;;;;;;;;5035409;28;20790;-68
2022/07/07 12:18:40;;;;;;;4.15;1.00;;;;;;;;;;5029086;28;20544;-67
2022/07/07 12:21:10;;;;;;;0.85;0.70;;;;;;;;;;5025539;28;20090;-67
2022/07/07 12:23:40;;;;;;;1.27;0.77;;;;;;;;;;5033671;28;20067;-70
2022/07/07 12:26:13;;;;;;;2.78;0.90;;;;;;;;;;5038120;28;20842;-67
2022/07/07 12:28:39;;;;;;;4.95;0.80;;;;;;;;;;5029160;28;20094;-66
2022/07/07 12:31:07;;;;;;;2.15;0.90;;;;;;;;;;5033874;28;20077;-67
2022/07/07 12:33:38;;;;;;;3.05;0.93;;;;;;;;;;5030118;28;20495;-67
2022/07/07 12:36:25;;;;;;;4.50;1.10;;;;;;;;;;5037439;28;20083;-69
2022/07/07 12:38:58;;;;;;;1.13;0.80;;;;;;;;;;5035064;28;20060;-70
2022/07/07 12:41:34;;;;;;;2.17;0.65;;;;;;;;;;5042978;28;20049;-70
2022/07/07 12:44:21;;;;;;;1.00;0.90;;;;;;;;;;5039704;28;20036;-67
2022/07/07 12:46:46;;;;;;;1.58;0.80;;;;;;;;;;5036181;28;20052;-68
2022/07/07 12:49:12;;;;;;;2.03;0.82;;;;;;;;;;5039859;28;20049;-67
2022/07/07 12:51:45;;;;;;;1.98;1.20;;;;;;;;;;5037334;28;20052;-67
2022/07/07 12:54:26;;;;;;;2.10;1.15;;;;;;;;;;5038417;28;20124;-67
2022/07/07 12:57:03;;;;;;;4.13;1.00;;;;;;;;;;5046958;28;20609;-68
2022/07/07 12:59:35;;;;;;;2.90;1.00;;;;;;;;;;5039833;28;20063;-69
2022/07/07 13:02:01;;;;;;;1.40;0.98;;;;;;;;;;5048686;28;20055;-68
2022/07/07 13:04:26;;;;;;;3.22;1.13;;;;;;;;;;5045638;28;20681;-72
2022/07/07 13:06:54;;;;;;;2.90;1.10;;;;;;;;;;5039951;28;20044;-70
2022/07/07 13:09:20;;;;;;;2.05;1.20;;;;;;;;;;5034606;28;20053;-71
2022/07/07 13:11:49;;;;;;;2.53;1.13;;;;;;;;;;5038476;28;20036;-68
2022/07/07 13:14:15;;;;;;;3.85;1.00;;;;;;;;;;5040599;28;20029;-67
2022/07/07 13:16:40;;;;;;;2.17;0.90;;;;;;;;;;5041618;28;20056;-69
2022/07/07 13:19:06;;;;;;;6.72;1.02;;;;;;;;;;5043567;28;20033;-69
2022/07/07 13:21:31;;;;;;;4.47;1.00;;;;;;;;;;5046423;28;20048;-70
2022/07/07 13:23:57;;;;;;;3.05;1.02;;;;;;;;;;5043588;28;20024;-70
2022/07/07 13:26:22;;;;;;;1.92;0.82;;;;;;;;;;5050212;28;20024;-69
2022/07/07 13:28:49;;;;;;;2.55;0.95;;;;;;;;;;5046155;28;20920;-67
2022/07/07 13:31:14;;;;;;;1.90;0.82;;;;;;;;;;5041838;28;20048;-67
2022/07/07 13:33:39;;;;;;;4.72;1.20;;;;;;;;;;5035075;28;20041;-70
2022/07/07 13:36:06;;;;;;;1.70;1.10;;;;;;;;;;5045470;28;20133;-70
2022/07/07 13:38:32;;;;;;;3.95;0.77;;;;;;;;;;5037612;28;20032;-70
2022/07/07 13:40:58;;;;;;;2.35;0.98;;;;;;;;;;5037943;28;20037;-68
2022/07/07 13:43:23;;;;;;;1.85;0.90;;;;;;;;;;5038863;28;20533;-68
2022/07/07 13:45:48;;;;;;;4.05;1.00;;;;;;;;;;5047629;28;20049;-68
2022/07/07 13:48:14;;;;;;;5.70;0.88;;;;;;;;;;5038259;28;20137;-68
2022/07/07 13:50:39;;;;;;;3.53;1.10;;;;;;;;;;5037699;28;20049;-68
2022/07/07 13:53:05;;;;;;;3.28;1.10;;;;;;;;;;5041251;28;20037;-68
2022/07/07 13:55:31;;;;;;;0.85;0.70;;;;;;;;;;5041242;28;20527;-68
2022/07/07 13:57:57;;;;;;;5.43;1.30;;;;;;;;;;5037283;28;20049;-70
2022/07/07 14:00:22;;;;;;;3.58;1.00;;;;;;;;;;5037676;28;20078;-70
2022/07/07 14:02:48;;;;;;;2.35;1.02;;;;;;;;;;5041025;28;20522;-67
2022/07/07 14:05:14;;;;;;;3.15;0.95;;;;;;;;;;5040639;28;20048;-68
2022/07/07 14:07:41;;;;;;;4.47;0.98;;;;;;;;;;5042460;28;20076;-68
2022/07/07 14:10:07;;;;;;;5.28;1.00;;;;;;;;;;5040894;28;20507;-68
2022/07/07 14:12:33;;;;;;;3.95;0.90;;;;;;;;;;5042456;28;20061;-68
2022/07/07 14:14:58;;;;;;;2.13;0.80;;;;;;;;;;5038951;28;20048;-70
2022/07/07 14:17:24;;;;;;;1.80;0.80;;;;;;;;;;5042411;28;20045;-70
2022/07/07 14:19:49;;;;;;;2.40;0.85;;;;;;;;;;5032439;28;20048;-69
2022/07/07 14:22:15;;;;;;;1.00;0.73;;;;;;;;;;5034045;28;20037;-69
2022/07/07 14:24:41;;;;;;;2.30;0.80;;;;;;;;;;5042700;28;20099;-68
2022/07/07 14:27:07;;;;;;;0.98;0.70;;;;;;;;;;5039882;28;20036;-68
2022/07/07 14:29:33;;;;;;;3.97;0.88;;;;;;;;;;5042623;28;20028;-69
2022/07/07 14:31:59;;;;;;;2.72;0.80;;;;;;;;;;5040259;28;20055;-69
2022/07/07 14:34:24;;;;;;;3.53;0.95;;;;;;;;;;5038653;28;20620;-69
2022/07/07 14:36:50;;;;;;;2.00;0.90;;;;;;;;;;5036033;28;20135;-69
2022/07/07 14:39:15;;;;;;;1.52;0.75;;;;;;;;;;5039466;28;20063;-69
2022/07/07 14:41:41;;;;;;;3.42;0.90;;;;;;;;;;5037742;28;20086;-69
2022/07/07 14:44:06;;;;;;;4.40;1.20;;;;;;;;;;5041685;28;20080;-69
2022/07/07 14:46:33;;;;;;;4.07;0.88;;;;;;;;;;5039034;28;20122;-69
2022/07/07 14:48:59;;;;;;;3.30;1.00;;;;;;;;;;5041716;28;20127;-68